Flight Track Log - Related Links

Times and Time Zones

All times are in EDT time to prevent confusion due to time zone crossing. See the UAL33 flight status page for this flight to view local times or setup timezone preferences in your user account.

Time Position Orientation Groundspeed Altitude Reporting Facility
EDT Latitude Longitude Course Direction KTS MPH feet Rate Location/Type
Tue 05:26:13 PM 29.9395 -95.3528 237° Southwest 197 227 1,500  Level FlightAware ADS-B
Tue 05:26:23 PM 29.9368 -95.3631 253° West 217 250 1,800 1,714 Climbing FlightAware ADS-B
Tue 05:26:27 PM 29.9367 -95.3676 269° West 223 257 1,900 1,333 Climbing FlightAware ADS-B
Tue 05:26:32 PM 29.9375 -95.3737 279° West 235 270 2,000 1,800 Climbing FlightAware ADS-B
Tue 05:26:37 PM 29.9392 -95.3798 288° West 243 280 2,200 2,000 Climbing FlightAware ADS-B
Tue 05:26:41 PM 29.9417 -95.3852 298° West 252 290 2,300 1,714 Climbing FlightAware ADS-B
Tue 05:26:44 PM 29.9438 -95.3886 305° West 257 296 2,400 2,571 Climbing FlightAware ADS-B
Tue 05:26:48 PM 29.9471 -95.3927 313° West 264 304 2,600 2,000 Climbing FlightAware ADS-B
Tue 05:26:53 PM 29.9513 -95.3968 320° Northwest 269 310 2,700 2,000 Climbing FlightAware ADS-B
Tue 05:26:57 PM 29.9550 -95.3997 326° Northwest 272 313 2,900 3,000 Climbing FlightAware ADS-B
Tue 05:27:01 PM 29.9599 -95.4024 334° Northwest 276 318 3,100 3,429 Climbing FlightAware ADS-B
Tue 05:27:04 PM 29.9642 -95.4042 340° North 277 319 3,300 4,000 Climbing FlightAware ADS-B
Tue 05:27:07 PM 29.9682 -95.4053 347° North 278 320 3,500 4,000 Climbing FlightAware ADS-B
Tue 05:27:10 PM 29.9720 -95.4061 350° North 279 321 3,700 3,750 Climbing FlightAware ADS-B
Tue 05:27:15 PM 29.9784 -95.4072 352° North 279 321 4,000 3,429 Climbing FlightAware ADS-B
Tue 05:27:31 PM 29.9984 -95.4094 355° North 282 325 4,900 3,494 Climbing FlightAware ADS-B
Tue 05:28:34 PM 30.0821 -95.4180 355° North 292 336 8,600 3,418 Climbing FlightAware ADS-B
Tue 05:28:50 PM 30.1040 -95.4203 355° North 293 337 9,400 2,609 Climbing FlightAware ADS-B
Tue 05:29:20 PM 30.1461 -95.4252 354° North 317 365 10,600 2,280 Climbing FlightAware ADS-B
Tue 05:29:40 PM 30.1753 -95.4294 350° North 333 383 11,300 2,550 Climbing FlightAware ADS-B
Tue 05:30:00 PM 30.2055 -95.4422 337° Northwest 340 391 12,300 3,125 Climbing FlightAware ADS-B
Tue 05:31:16 PM 30.3123 -95.5099 331° Northwest 355 409 16,300 2,964 Climbing FlightAware ADS-B
Tue 05:32:46 PM 30.4474 -95.5961 331° Northwest 374 430 20,500 2,440 Climbing FlightAware ADS-B
Tue 05:33:46 PM 30.5416 -95.6549 332° Northwest 404 465 22,400 1,582 Climbing FlightAware ADS-B
Tue 05:34:17 PM 30.5953 -95.6840 335° Northwest 430 495 22,900 984 Climbing FlightAware ADS-B
Tue 05:34:47 PM 30.6526 -95.7146 335° Northwest 453 521 23,400 1,319 Climbing FlightAware ADS-B
Tue 05:35:48 PM 30.7725 -95.7789 335° Northwest 479 551 24,900 1,686 Climbing FlightAware ADS-B
Tue 05:37:20 PM 30.9604 -95.8798 335° Northwest 493 567 27,700 1,762 Climbing FlightAware ADS-B
Tue 05:37:54 PM 31.0312 -95.9180 335° Northwest 499 574 28,600 1,515 Climbing FlightAware ADS-B
Tue 05:38:59 PM 31.1728 -95.9794 344° North 508 585 30,200 1,745 Climbing FlightAware ADS-B
Tue 05:40:15 PM 31.3481 -96.0201 349° North 505 581 32,700 1,796 Climbing FlightAware ADS-B
Tue 05:41:26 PM 31.5103 -96.0583 349° North 500 575 34,600 1,500 Climbing FlightAware ADS-B
Tue 05:42:23 PM 31.6380 -96.0883 349° North 500 575 35,900 1,326 Climbing FlightAware ADS-B
Tue 05:43:01 PM 31.7249 -96.1080 349° North 503 579 36,700 1,200 Climbing FlightAware ADS-B
Tue 05:43:23 PM 31.7766 -96.1072 North 504 580 37,100 1,286 Climbing FlightAware ADS-B
Tue 05:43:29 PM 31.7918 -96.1046 North 504 580 37,300 663 Climbing FlightAware ADS-B
Tue 05:46:15 PM 32.1453 -95.9429 22° Northeast 493 567 39,000 457 Climbing FlightAware ADS-B
Tue 05:47:12 PM 32.2630 -95.8880 22° Northeast 493 567 39,000  Level FlightAware ADS-B
Tue 05:48:51 PM 32.4748 -95.7880 22° Northeast 493 567 39,000  Level FlightAware ADS-B
Tue 05:49:27 PM 32.5492 -95.7528 22° Northeast 486 559 39,000  Level FlightAware ADS-B
Tue 05:51:52 PM 32.8490 -95.6110 22° Northeast 488 562 39,000  Level FlightAware ADS-B
Tue 05:52:22 PM 32.9140 -95.5800 22° Northeast 488 562 39,000  Level FlightAware ADS-B
Tue 05:53:00 PM 32.9950 -95.5410 22° Northeast 489 563 39,000  Level FlightAware ADS-B
Tue 05:53:36 PM 33.0700 -95.5050 22° Northeast 489 563 39,000  Level FlightAware ADS-B
Tue 05:54:13 PM 33.1470 -95.4680 22° Northeast 489 563 39,000  Level FlightAware ADS-B
Tue 05:54:48 PM 33.2220 -95.4320 22° Northeast 489 563 39,000  Level FlightAware ADS-B
Tue 05:55:24 PM 33.2960 -95.3970 22° Northeast 490 564 39,000  Level FlightAware ADS-B
Tue 05:56:00 PM 33.3730 -95.3600 22° Northeast 490 564 39,000  Level FlightAware ADS-B
Tue 05:56:32 PM 33.4410 -95.3270 22° Northeast 489 563 39,000  Level FlightAware ADS-B
Tue 05:57:08 PM 33.5150 -95.2910 22° Northeast 490 564 39,000  Level FlightAware ADS-B
Tue 05:57:44 PM 33.5910 -95.2540 22° Northeast 494 568 39,000  Level FlightAware ADS-B
Tue 05:58:20 PM 33.6670 -95.2170 22° Northeast 497 572 39,000 176 Level FlightAware ADS-B
Tue 05:58:52 PM 33.7370 -95.1830 22° Northeast 500 575 39,200 636 Climbing FlightAware ADS-B
Tue 05:59:26 PM 33.8080 -95.1480 22° Northeast 502 578 39,700 514 Climbing FlightAware ADS-B
Tue 06:00:02 PM 33.8760 -95.1160 21° North 501 577 39,800 83 Climbing FlightAware ADS-B
Tue 06:00:38 PM 33.9410 -95.0840 22° Northeast 501 577 39,800 1,029 Level FlightAware ADS-B
Tue 06:01:12 PM 34.0360 -95.0370 22° Northeast 494 568 41,000 911 Climbing FlightAware ADS-B
Tue 06:01:57 PM 34.1200 -94.9960 22° Northeast 492 566 41,000  Level FlightAware ADS-B
Tue 06:02:32 PM 34.2020 -94.9550 22° Northeast 487 560 41,000  Level FlightAware ADS-B
Tue 06:03:02 PM 34.2660 -94.9240 22° Northeast 485 558 41,000  Level FlightAware ADS-B
Tue 06:03:41 PM 34.3460 -94.8850 22° Northeast 483 556 41,000  Level FlightAware ADS-B
Tue 06:04:13 PM 34.4110 -94.8520 23° Northeast 481 554 41,000  Level FlightAware ADS-B
Tue 06:04:50 PM 34.4170 -94.8490 22° Northeast 480 552 41,000  Level FlightAware ADS-B
Tue 06:05:27 PM 34.5650 -94.7760 22° Northeast 482 555 41,000  Level FlightAware ADS-B
Tue 06:05:59 PM 34.6280 -94.7440 23° Northeast 482 555 41,000  Level FlightAware ADS-B
Tue 06:06:34 PM 34.7020 -94.7070 22° Northeast 482 555 41,000  Level FlightAware ADS-B
Tue 06:07:11 PM 34.7800 -94.6690 22° Northeast 481 554 41,000  Level FlightAware ADS-B
Tue 06:07:50 PM 34.8510 -94.6330 23° Northeast 481 554 41,000  Level FlightAware ADS-B
Tue 06:08:25 PM 34.9210 -94.5980 22° Northeast 481 554 41,000  Level FlightAware ADS-B
Tue 06:09:00 PM 35.0010 -94.5580 22° Northeast 481 554 41,000  Level FlightAware ADS-B
Tue 06:09:35 PM 35.0750 -94.5210 22° Northeast 480 552 41,000  Level FlightAware ADS-B
Tue 06:10:20 PM 35.1660 -94.4750 22° Northeast 478 550 41,000  Level FlightAware ADS-B
Tue 06:10:50 PM 35.2270 -94.4440 23° Northeast 478 550 41,000  Level FlightAware ADS-B
Tue 06:11:47 PM 35.3290 -94.3920 23° Northeast 477 549 41,000  Level FlightAware ADS-B
Tue 06:12:19 PM 35.4110 -94.3500 23° Northeast 476 548 41,000  Level FlightAware ADS-B
Tue 06:12:53 PM 35.4810 -94.3150 22° Northeast 477 549 41,000  Level FlightAware ADS-B
Tue 06:13:29 PM 35.5540 -94.2780 22° Northeast 477 549 41,000  Level FlightAware ADS-B
Tue 06:14:05 PM 35.6270 -94.2400 23° Northeast 479 551 41,000  Level FlightAware ADS-B
Tue 06:14:29 PM 35.6760 -94.2150 23° Northeast 479 551 41,000  Level FlightAware ADS-B
Tue 06:15:05 PM 35.7510 -94.1770 22° Northeast 479 551 41,000  Level FlightAware ADS-B
Tue 06:15:43 PM 35.8290 -94.1370 23° Northeast 481 554 41,000  Level FlightAware ADS-B
Tue 06:16:19 PM 35.9030 -94.0990 23° Northeast 482 555 41,000  Level FlightAware ADS-B
Tue 06:16:51 PM 35.9670 -94.0650 23° Northeast 482 555 41,000  Level FlightAware ADS-B
Tue 06:17:27 PM 36.0430 -94.0260 23° Northeast 481 554 41,000  Level FlightAware ADS-B
Tue 06:18:02 PM 36.1130 -93.9900 23° Northeast 482 555 41,000  Level FlightAware ADS-B
Tue 06:18:35 PM 36.1830 -93.9540 23° Northeast 483 556 41,000  Level FlightAware ADS-B
Tue 06:19:09 PM 36.2510 -93.9180 23° Northeast 484 557 41,000  Level FlightAware ADS-B
Tue 06:19:47 PM 36.3310 -93.8760 23° Northeast 484 557 41,000  Level FlightAware ADS-B
Tue 06:20:01 PM 36.3600 -93.8610 23° Northeast 484 557 41,000  Level FlightAware ADS-B
Tue 06:20:59 PM 36.4800 -93.7990 23° Northeast 486 559 41,000  Level FlightAware ADS-B
Tue 06:21:35 PM 36.5540 -93.7600 23° Northeast 487 560 41,000  Level FlightAware ADS-B
Tue 06:22:09 PM 36.6250 -93.7230 23° Northeast 487 560 41,000  Level FlightAware ADS-B
Tue 06:22:39 PM 36.6870 -93.6900 23° Northeast 486 559 41,000  Level FlightAware ADS-B
Tue 06:23:46 PM 36.8240 -93.6170 23° Northeast 484 557 41,000  Level FlightAware ADS-B
Tue 06:24:17 PM 36.8890 -93.5830 23° Northeast 483 556 41,000  Level FlightAware ADS-B
Tue 06:24:57 PM 36.9710 -93.5390 23° Northeast 481 554 41,000  Level FlightAware ADS-B
Tue 06:25:31 PM 37.0400 -93.5030 23° Northeast 481 554 41,000  Level FlightAware ADS-B
Tue 06:26:09 PM 37.1180 -93.4610 23° Northeast 482 555 41,000  Level FlightAware ADS-B
Tue 06:26:37 PM 37.1770 -93.4300 23° Northeast 482 555 41,000  Level FlightAware ADS-B
Tue 06:27:09 PM 37.2420 -93.3950 23° Northeast 482 555 41,000  Level FlightAware ADS-B
Tue 06:27:43 PM 37.3120 -93.3570 23° Northeast 484 557 41,000  Level FlightAware ADS-B
Tue 06:28:21 PM 37.3880 -93.3040 29° Northeast 496 571 41,000  Level FlightAware ADS-B
Tue 06:28:53 PM 37.4470 -93.2500 36° Northeast 499 574 41,000  Level FlightAware ADS-B
Tue 06:29:29 PM 37.5150 -93.1880 36° Northeast 500 575 41,000  Level FlightAware ADS-B
Tue 06:30:05 PM 37.5810 -93.1260 37° Northeast 501 577 41,000  Level FlightAware ADS-B
Tue 06:30:41 PM 37.6490 -93.0630 36° Northeast 502 578 41,000  Level FlightAware ADS-B
Tue 06:31:15 PM 37.7110 -93.0060 36° Northeast 504 580 41,000  Level FlightAware ADS-B
Tue 06:31:51 PM 37.7800 -92.9410 37° Northeast 506 582 41,000  Level FlightAware ADS-B
Tue 06:32:27 PM 37.8470 -92.8790 36° Northeast 506 582 41,000  Level FlightAware ADS-B
Tue 06:32:59 PM 37.9080 -92.8220 36° Northeast 505 581 41,000  Level FlightAware ADS-B
Tue 06:33:35 PM 37.9730 -92.7610 36° Northeast 504 580 41,000  Level FlightAware ADS-B
Tue 06:34:11 PM 38.0410 -92.6970 37° Northeast 505 581 41,000  Level FlightAware ADS-B
Tue 06:34:41 PM 38.0980 -92.6430 37° Northeast 505 581 41,000  Level FlightAware ADS-B
Tue 06:35:19 PM 38.1690 -92.5760 37° Northeast 503 579 41,000  Level FlightAware ADS-B
Tue 06:35:55 PM 38.2340 -92.5140 37° Northeast 501 577 41,000  Level FlightAware ADS-B
Tue 06:36:29 PM 38.2980 -92.4540 36° Northeast 499 574 41,000  Level FlightAware ADS-B
Tue 06:36:59 PM 38.3550 -92.4000 37° Northeast 499 574 41,000  Level FlightAware ADS-B
Tue 06:37:47 PM 38.4330 -92.3270 36° Northeast 500 575 41,000  Level FlightAware ADS-B
Tue 06:38:17 PM 38.4980 -92.2630 38° Northeast 500 575 41,000  Level FlightAware ADS-B
Tue 06:38:57 PM 38.5720 -92.1930 36° Northeast 502 578 41,000  Level FlightAware ADS-B
Tue 06:39:45 PM 38.6640 -92.1050 37° Northeast 504 580 41,000  Level FlightAware ADS-B
Tue 06:40:28 PM 38.7320 -92.0390 37° Northeast 504 580 41,000  Level FlightAware ADS-B
Tue 06:41:02 PM 38.8060 -91.9670 37° Northeast 505 581 41,000  Level FlightAware ADS-B
Tue 06:41:45 PM 38.8850 -91.8910 37° Northeast 505 581 41,000  Level FlightAware ADS-B
Tue 06:42:16 PM 38.9420 -91.8360 37° Northeast 506 582 41,000  Level FlightAware ADS-B
Tue 06:42:52 PM 39.0030 -91.7760 37° Northeast 506 582 41,000  Level FlightAware ADS-B
Tue 06:43:31 PM 39.0830 -91.6980 37° Northeast 507 583 41,000  Level FlightAware ADS-B
Tue 06:44:18 PM 39.1710 -91.6120 37° Northeast 505 581 41,000  Level FlightAware ADS-B
Tue 06:44:55 PM 39.2330 -91.5370 43° Northeast 505 581 41,000  Level FlightAware ADS-B
Tue 06:45:52 PM 39.2810 -91.3770 38° Northeast 524 603 41,000 -844 Level FlightAware ADS-B
Tue 06:47:00 PM 39.4373 -91.3322 38° Northeast  Level FlightAware Approximate
Tue 06:48:14 PM 39.2920 -90.9290 88° East 531 611 38,200  Level FlightAware ADS-B
Tue 06:48:38 PM 39.3090 -90.8640 71° East 510 587 37,800 -1,138 Descending FlightAware ADS-B
Tue 06:49:12 PM 39.3630 -90.7880 47° Northeast 482 555 37,100 -1,390 Descending FlightAware ADS-B
Tue 06:50:00 PM 39.4570 -90.7250 27° Northeast 472 543 35,900 -1,537 Descending FlightAware ADS-B
Tue 06:50:34 PM 39.5240 -90.6820 26° Northeast 476 548 35,000 -1,667 Descending FlightAware ADS-B
Tue 06:51:12 PM 39.5950 -90.6350 27° Northeast 483 556 33,900 -1,541 Descending FlightAware ADS-B
Tue 06:51:48 PM 39.6650 -90.5900 26° Northeast 486 559 33,100 -818 Descending FlightAware ADS-B
Tue 06:52:18 PM 39.7310 -90.5470 27° Northeast 484 557 33,000 -88 Descending FlightAware ADS-B
Tue 06:52:56 PM 39.8070 -90.4970 27° Northeast 480 552 33,000  Level FlightAware ADS-B
Tue 06:53:38 PM 39.8850 -90.4450 27° Northeast 482 555 33,000  Level FlightAware ADS-B
Tue 06:54:11 PM 39.9530 -90.4010 26° Northeast 484 557 33,000  Level FlightAware ADS-B
Tue 06:54:48 PM 40.0300 -90.3500 27° Northeast 484 557 33,000  Level FlightAware ADS-B
Tue 06:55:26 PM 40.1050 -90.3000 27° Northeast 483 556 33,000  Level FlightAware ADS-B
Tue 06:55:55 PM 40.1640 -90.2610 27° Northeast 481 554 33,000  Level FlightAware ADS-B
Tue 06:56:34 PM 40.2390 -90.2110 27° Northeast 479 551 33,000  Level FlightAware ADS-B
Tue 06:57:11 PM 40.3150 -90.1600 27° Northeast 480 552 33,000  Level FlightAware ADS-B
Tue 06:57:40 PM 40.3710 -90.1230 27° Northeast 483 556 33,000  Level FlightAware ADS-B
Tue 06:58:17 PM 40.4440 -90.0740 27° Northeast 484 557 33,000  Level FlightAware ADS-B
Tue 06:58:55 PM 40.5200 -90.0230 27° Northeast 485 558 33,000  Level FlightAware ADS-B
Tue 06:59:24 PM 40.5770 -89.9840 27° Northeast 485 558 33,000 -522 Level FlightAware ADS-B
Tue 07:00:04 PM 40.6600 -89.9280 27° Northeast 498 573 32,400 -1,360 Descending FlightAware ADS-B
Tue 07:00:39 PM 40.7300 -89.8810 27° Northeast 495 570 31,300 -1,971 Descending FlightAware ADS-B
Tue 07:01:14 PM 40.8030 -89.8320 27° Northeast 487 560 30,100 -2,028 Descending FlightAware ADS-B
Tue 07:01:50 PM 40.8740 -89.7830 28° Northeast 478 550 28,900 -1,941 Descending FlightAware ADS-B
Tue 07:02:22 PM 40.9370 -89.7410 27° Northeast 480 552 27,900 -1,913 Descending FlightAware ADS-B
Tue 07:02:59 PM 41.0090 -89.6910 28° Northeast 475 547 26,700 -1,973 Descending FlightAware ADS-B
Tue 07:03:35 PM 41.0760 -89.6450 27° Northeast 468 539 25,500 -2,060 Descending FlightAware ADS-B
Tue 07:04:06 PM 41.1370 -89.5990 30° Northeast 464 534 24,400 -2,029 Descending FlightAware ADS-B
Tue 07:04:43 PM 41.1840 -89.5280 49° Northeast 466 536 23,200 -2,000 Descending FlightAware ADS-B
Tue 07:05:18 PM 41.2220 -89.4330 62° Northeast 453 521 22,000 -1,944 Descending FlightAware ADS-B
Tue 07:05:54 PM 41.2580 -89.3450 61° Northeast 438 504 20,900 -2,143 Descending FlightAware ADS-B
Tue 07:06:28 PM 41.2900 -89.2660 62° Northeast 429 494 19,500 -2,506 Descending FlightAware ADS-B
Tue 07:07:13 PM 41.3300 -89.1650 62° Northeast 416 479 17,600 -2,649 Descending FlightAware ADS-B
Tue 07:07:45 PM 41.3590 -89.0940 61° Northeast 381 438 16,100 -2,294 Descending FlightAware ADS-B
Tue 07:08:21 PM 41.3860 -89.0260 62° Northeast 337 388 15,000 -1,524 Descending FlightAware ADS-B
Tue 07:08:48 PM 41.4020 -88.9730 68° East 323 372 14,500 -1,200 Descending FlightAware ADS-B
Tue 07:09:26 PM 41.4040 -88.8990 88° East 317 365 13,700 -1,217 Descending FlightAware ADS-B
Tue 07:09:57 PM 41.4050 -88.8410 89° East 313 360 13,100 -1,125 Descending FlightAware ADS-B
Tue 07:10:14 PM 41.4120 -88.8120 72° East 311 358 12,800 -792 Descending FlightAware ADS-B
Tue 07:10:50 PM 41.4440 -88.7520 55° Northeast 306 352 12,400 -618 Descending FlightAware ADS-B
Tue 07:11:22 PM 41.4720 -88.7040 52° Northeast 305 351 12,100 -537 Descending FlightAware ADS-B
Tue 07:11:57 PM 41.5010 -88.6550 52° Northeast 304 350 11,800 -667 Descending FlightAware ADS-B
Tue 07:12:34 PM 41.5340 -88.5980 52° Northeast 303 349 11,300 -896 Descending FlightAware ADS-B
Tue 07:13:04 PM 41.5590 -88.5540 53° Northeast 303 349 10,800 -441 Descending FlightAware ADS-B
Tue 07:13:42 PM 41.5920 -88.4970 52° Northeast 306 352 10,800 -500 Level FlightAware ADS-B
Tue 07:14:16 PM 41.6200 -88.4490 52° Northeast 306 352 10,200 -1,053 Descending FlightAware ADS-B
Tue 07:14:39 PM 41.6390 -88.4150 53° Northeast 306 352 9,800 -1,116 Descending FlightAware ADS-B
Tue 07:14:59 PM 41.6570 -88.3860 50° Northeast 305 351 9,400 -1,171 Descending FlightAware ADS-B
Tue 07:15:20 PM 41.6760 -88.3530 52° Northeast 302 348 9,000 -837 Descending FlightAware ADS-B
Tue 07:15:42 PM 41.6950 -88.3200 52° Northeast 301 346 8,800 -286 Descending FlightAware ADS-B
Tue 07:16:02 PM 41.7130 -88.2920 49° Northeast 303 349 8,800  Level FlightAware ADS-B
Tue 07:16:12 PM 41.7250 -88.2830 29° Northeast 304 350 8,800  Level FlightAware ADS-B
Tue 07:16:24 PM 41.7420 -88.2780 12° North 304 350 8,800  Level FlightAware ADS-B
Tue 07:16:32 PM 41.7520 -88.2780 360° North 305 351 8,800 -214 Level FlightAware ADS-B
Tue 07:16:52 PM 41.7820 -88.2790 359° North 307 353 8,700 -750 Descending FlightAware ADS-B
Tue 07:17:12 PM 41.8090 -88.2800 358° North 306 352 8,300 -1,167 Descending FlightAware ADS-B
Tue 07:17:28 PM 41.8320 -88.2810 358° North 301 346 8,000 -833 Descending FlightAware ADS-B
Tue 07:17:48 PM 41.8590 -88.2830 357° North 285 328 7,800 -600 Descending FlightAware ADS-B
Tue 07:18:08 PM 41.8850 -88.2840 358° North 271 312 7,600 -750 Descending FlightAware ADS-B
Tue 07:18:28 PM 41.9090 -88.2850 358° North 259 298 7,300 -1,091 Descending FlightAware ADS-B
Tue 07:18:52 PM 41.9380 -88.2860 359° North 244 281 6,800 -1,200 Descending FlightAware ADS-B
Tue 07:18:58 PM 41.9440 -88.2860 360° North 244 281 6,700 -1,556 Descending FlightAware ADS-B
Tue 07:19:19 PM 41.9660 -88.2760 19° North 239 275 6,100 -1,920 Descending FlightAware ADS-B
Tue 07:19:23 PM 41.9690 -88.2700 56° Northeast 235 270 5,900 -1,875 Descending FlightAware ADS-B
Tue 07:19:35 PM 41.9730 -88.2550 70° East 225 259 5,600 -1,714 Descending FlightAware ADS-B
Tue 07:19:37 PM 41.9730 -88.2520 90° East 224 258 5,500 -1,929 Descending FlightAware ADS-B
Tue 07:20:03 PM 41.9690 -88.2170 99° East 220 253 4,700 -1,565 Descending FlightAware ADS-B
Tue 07:20:23 PM 41.9680 -88.1890 93° East 214 246 4,300 -1,286 Descending FlightAware ADS-B
Tue 07:20:45 PM 41.9680 -88.1610 90° East 212 244 3,800 -1,143 Descending FlightAware ADS-B
Tue 07:21:05 PM 41.9680 -88.1370 90° East 195 224 3,500 -1,050 Descending FlightAware ADS-B
Tue 07:21:25 PM 41.9680 -88.1120 90° East 183 211 3,100 -1,105 Descending FlightAware ADS-B
Tue 07:21:43 PM 41.9690 -88.0920 86° East 185 213 2,800 -955 Descending FlightAware ADS-B
Tue 07:22:09 PM 41.9690 -88.0630 90° East 183 211 2,400 -882 Descending FlightAware ADS-B
Tue 07:22:17 PM 41.9690 -88.0540 90° East 181 208 2,300 -1,000 Descending FlightAware ADS-B
Tue 07:22:33 PM 41.9690 -88.0370 90° East 170 196 2,000 -818 Descending FlightAware ADS-B
Tue 07:23:01 PM 41.9690 -88.0110 90° East 147 169 1,700 -692 Descending FlightAware ADS-B
Tue 07:23:25 PM 41.9690 -87.9900 90° East 142 163 1,400 -750 Descending FlightAware ADS-B
Tue 07:23:49 PM 41.9690 -87.9680 90° East 145 167 1,100 -894 Descending FlightAware ADS-B
Tue 07:24:12 PM 41.9690 -87.9460 90° East 145 167 700 -462 Descending FlightAware ADS-B
Tue 07:24:54 PM 41.9690 -87.9120 90° East 144 166 600 -143 Descending FlightAware ADS-B

Login

Don't have an account? Register now (free) for customized features, flight alerts, and more!